sensor_id;sensor_type;location;lat;lon;timestamp;P1;durP1;ratioP1;P2;durP2;ratioP2
20997;SDS011;10657;51.276;6.390;2023-01-19T00:00:28;10.57;;;6.18;;
20997;SDS011;10657;51.276;6.390;2023-01-19T00:02:55;8.13;;;4.18;;
20997;SDS011;10657;51.276;6.390;2023-01-19T00:05:22;9.70;;;4.38;;
20997;SDS011;10657;51.276;6.390;2023-01-19T00:07:48;12.23;;;7.20;;
20997;SDS011;10657;51.276;6.390;2023-01-19T00:10:15;12.88;;;6.40;;
20997;SDS011;10657;51.276;6.390;2023-01-19T00:12:42;10.52;;;6.45;;
20997;SDS011;10657;51.276;6.390;2023-01-19T00:15:09;13.73;;;7.15;;
20997;SDS011;10657;51.276;6.390;2023-01-19T00:17:36;12.85;;;6.63;;
20997;SDS011;10657;51.276;6.390;2023-01-19T00:20:03;12.52;;;6.82;;
20997;SDS011;10657;51.276;6.390;2023-01-19T00:22:29;12.05;;;6.85;;
20997;SDS011;10657;51.276;6.390;2023-01-19T00:24:56;10.23;;;6.22;;
20997;SDS011;10657;51.276;6.390;2023-01-19T00:27:23;12.18;;;7.00;;
20997;SDS011;10657;51.276;6.390;2023-01-19T00:29:50;11.55;;;6.65;;
20997;SDS011;10657;51.276;6.390;2023-01-19T00:32:16;10.48;;;5.90;;
20997;SDS011;10657;51.276;6.390;2023-01-19T00:34:44;10.52;;;6.07;;
20997;SDS011;10657;51.276;6.390;2023-01-19T00:37:15;11.35;;;6.65;;
20997;SDS011;10657;51.276;6.390;2023-01-19T00:39:42;11.63;;;7.05;;
20997;SDS011;10657;51.276;6.390;2023-01-19T00:42:11;11.38;;;6.70;;
20997;SDS011;10657;51.276;6.390;2023-01-19T00:44:57;13.90;;;7.32;;
20997;SDS011;10657;51.276;6.390;2023-01-19T00:47:24;11.80;;;7.07;;
20997;SDS011;10657;51.276;6.390;2023-01-19T00:49:50;12.65;;;7.13;;
20997;SDS011;10657;51.276;6.390;2023-01-19T00:52:17;10.57;;;6.60;;
20997;SDS011;10657;51.276;6.390;2023-01-19T00:54:44;10.32;;;6.65;;
20997;SDS011;10657;51.276;6.390;2023-01-19T00:57:11;14.70;;;7.82;;
20997;SDS011;10657;51.276;6.390;2023-01-19T00:59:38;12.45;;;7.72;;
20997;SDS011;10657;51.276;6.390;2023-01-19T01:02:04;11.15;;;7.88;;
20997;SDS011;10657;51.276;6.390;2023-01-19T01:04:31;11.45;;;6.90;;
20997;SDS011;10657;51.276;6.390;2023-01-19T01:06:58;12.40;;;7.60;;
20997;SDS011;10657;51.276;6.390;2023-01-19T01:09:25;11.50;;;7.80;;
20997;SDS011;10657;51.276;6.390;2023-01-19T01:11:52;12.77;;;7.25;;
20997;SDS011;10657;51.276;6.390;2023-01-19T01:14:19;13.25;;;7.40;;
20997;SDS011;10657;51.276;6.390;2023-01-19T01:16:46;13.52;;;7.57;;
20997;SDS011;10657;51.276;6.390;2023-01-19T01:19:13;16.63;;;8.40;;
20997;SDS011;10657;51.276;6.390;2023-01-19T01:21:39;12.27;;;7.80;;
20997;SDS011;10657;51.276;6.390;2023-01-19T01:24:07;12.23;;;7.15;;
20997;SDS011;10657;51.276;6.390;2023-01-19T01:26:34;13.73;;;8.18;;
20997;SDS011;10657;51.276;6.390;2023-01-19T01:29:01;11.45;;;6.43;;
20997;SDS011;10657;51.276;6.390;2023-01-19T01:31:27;13.02;;;7.60;;
20997;SDS011;10657;51.276;6.390;2023-01-19T01:33:54;11.60;;;7.05;;
20997;SDS011;10657;51.276;6.390;2023-01-19T01:36:21;9.60;;;6.00;;
20997;SDS011;10657;51.276;6.390;2023-01-19T01:38:48;13.32;;;7.45;;
20997;SDS011;10657;51.276;6.390;2023-01-19T01:41:16;11.52;;;7.68;;
20997;SDS011;10657;51.276;6.390;2023-01-19T01:43:46;12.75;;;7.68;;
20997;SDS011;10657;51.276;6.390;2023-01-19T01:46:16;13.60;;;8.25;;
20997;SDS011;10657;51.276;6.390;2023-01-19T01:48:43;13.20;;;8.25;;
20997;SDS011;10657;51.276;6.390;2023-01-19T01:51:17;12.75;;;8.15;;
20997;SDS011;10657;51.276;6.390;2023-01-19T01:56:48;12.45;;;7.70;;
20997;SDS011;10657;51.276;6.390;2023-01-19T01:59:22;14.75;;;7.50;;
20997;SDS011;10657;51.276;6.390;2023-01-19T02:01:52;13.85;;;7.88;;
20997;SDS011;10657;51.276;6.390;2023-01-19T02:04:47;12.25;;;6.63;;
20997;SDS011;10657;51.276;6.390;2023-01-19T02:07:21;14.52;;;7.40;;
20997;SDS011;10657;51.276;6.390;2023-01-19T02:10:13;13.63;;;7.57;;
20997;SDS011;10657;51.276;6.390;2023-01-19T02:12:59;12.13;;;6.57;;
20997;SDS011;10657;51.276;6.390;2023-01-19T02:15:43;11.20;;;7.25;;
20997;SDS011;10657;51.276;6.390;2023-01-19T02:18:10;13.10;;;7.07;;
20997;SDS011;10657;51.276;6.390;2023-01-19T02:20:37;10.25;;;6.65;;
20997;SDS011;10657;51.276;6.390;2023-01-19T02:23:08;15.23;;;6.07;;
20997;SDS011;10657;51.276;6.390;2023-01-19T02:25:40;11.55;;;6.82;;
20997;SDS011;10657;51.276;6.390;2023-01-19T02:28:07;9.25;;;5.65;;
20997;SDS011;10657;51.276;6.390;2023-01-19T02:30:34;13.90;;;7.15;;
20997;SDS011;10657;51.276;6.390;2023-01-19T02:33:05;10.18;;;5.10;;
20997;SDS011;10657;51.276;6.390;2023-01-19T02:35:32;9.52;;;5.65;;
20997;SDS011;10657;51.276;6.390;2023-01-19T02:38:01;11.75;;;6.95;;
20997;SDS011;10657;51.276;6.390;2023-01-19T02:40:29;15.73;;;8.00;;
20997;SDS011;10657;51.276;6.390;2023-01-19T02:42:56;12.45;;;7.53;;
20997;SDS011;10657;51.276;6.390;2023-01-19T02:45:26;12.20;;;7.32;;
20997;SDS011;10657;51.276;6.390;2023-01-19T02:47:53;11.40;;;7.38;;
20997;SDS011;10657;51.276;6.390;2023-01-19T02:59:03;12.30;;;7.07;;
20997;SDS011;10657;51.276;6.390;2023-01-19T03:04:21;13.98;;;7.25;;
20997;SDS011;10657;51.276;6.390;2023-01-19T03:07:15;11.73;;;6.63;;
20997;SDS011;10657;51.276;6.390;2023-01-19T03:09:57;13.18;;;8.00;;
20997;SDS011;10657;51.276;6.390;2023-01-19T03:15:21;11.75;;;7.15;;
20997;SDS011;10657;51.276;6.390;2023-01-19T03:17:52;14.68;;;7.75;;
20997;SDS011;10657;51.276;6.390;2023-01-19T03:20:21;12.07;;;7.15;;
20997;SDS011;10657;51.276;6.390;2023-01-19T03:22:52;13.45;;;7.85;;
20997;SDS011;10657;51.276;6.390;2023-01-19T03:25:25;12.05;;;6.93;;
20997;SDS011;10657;51.276;6.390;2023-01-19T03:27:56;12.75;;;7.22;;
20997;SDS011;10657;51.276;6.390;2023-01-19T03:30:24;11.45;;;6.30;;
20997;SDS011;10657;51.276;6.390;2023-01-19T03:33:04;12.65;;;8.40;;
20997;SDS011;10657;51.276;6.390;2023-01-19T03:35:34;12.75;;;6.13;;
20997;SDS011;10657;51.276;6.390;2023-01-19T03:38:05;15.52;;;8.00;;
20997;SDS011;10657;51.276;6.390;2023-01-19T03:40:35;15.30;;;7.57;;
20997;SDS011;10657;51.276;6.390;2023-01-19T03:43:02;13.00;;;6.82;;
20997;SDS011;10657;51.276;6.390;2023-01-19T03:45:30;13.85;;;8.60;;
20997;SDS011;10657;51.276;6.390;2023-01-19T03:47:58;13.38;;;7.57;;
20997;SDS011;10657;51.276;6.390;2023-01-19T03:50:26;13.85;;;8.23;;
20997;SDS011;10657;51.276;6.390;2023-01-19T03:53:05;12.93;;;8.50;;
20997;SDS011;10657;51.276;6.390;2023-01-19T03:55:33;13.38;;;7.72;;
20997;SDS011;10657;51.276;6.390;2023-01-19T03:58:02;13.98;;;7.80;;
20997;SDS011;10657;51.276;6.390;2023-01-19T04:00:29;12.80;;;7.55;;
20997;SDS011;10657;51.276;6.390;2023-01-19T04:02:56;13.88;;;7.35;;
20997;SDS011;10657;51.276;6.390;2023-01-19T04:05:22;13.30;;;7.90;;
20997;SDS011;10657;51.276;6.390;2023-01-19T04:07:49;13.10;;;6.97;;
20997;SDS011;10657;51.276;6.390;2023-01-19T04:10:17;13.13;;;8.95;;
20997;SDS011;10657;51.276;6.390;2023-01-19T04:12:44;14.30;;;8.10;;
20997;SDS011;10657;51.276;6.390;2023-01-19T04:15:11;13.65;;;7.57;;
20997;SDS011;10657;51.276;6.390;2023-01-19T04:17:38;14.75;;;9.50;;
20997;SDS011;10657;51.276;6.390;2023-01-19T04:20:05;14.05;;;8.10;;
20997;SDS011;10657;51.276;6.390;2023-01-19T04:22:33;14.77;;;9.43;;
20997;SDS011;10657;51.276;6.390;2023-01-19T04:25:00;15.25;;;7.72;;
20997;SDS011;10657;51.276;6.390;2023-01-19T04:27:28;15.73;;;8.98;;
20997;SDS011;10657;51.276;6.390;2023-01-19T04:29:54;13.07;;;6.95;;
20997;SDS011;10657;51.276;6.390;2023-01-19T04:32:21;13.63;;;7.40;;
20997;SDS011;10657;51.276;6.390;2023-01-19T04:34:48;14.75;;;9.25;;
20997;SDS011;10657;51.276;6.390;2023-01-19T04:37:14;16.52;;;8.98;;
20997;SDS011;10657;51.276;6.390;2023-01-19T04:39:41;15.02;;;8.98;;
20997;SDS011;10657;51.276;6.390;2023-01-19T04:42:07;16.13;;;10.35;;
20997;SDS011;10657;51.276;6.390;2023-01-19T04:44:34;13.52;;;9.35;;
20997;SDS011;10657;51.276;6.390;2023-01-19T04:47:01;16.55;;;9.23;;
20997;SDS011;10657;51.276;6.390;2023-01-19T04:49:28;16.23;;;10.48;;
20997;SDS011;10657;51.276;6.390;2023-01-19T04:51:55;15.50;;;9.30;;
20997;SDS011;10657;51.276;6.390;2023-01-19T04:54:21;17.38;;;9.52;;
20997;SDS011;10657;51.276;6.390;2023-01-19T04:56:48;17.20;;;9.57;;
20997;SDS011;10657;51.276;6.390;2023-01-19T04:59:15;16.38;;;9.77;;
20997;SDS011;10657;51.276;6.390;2023-01-19T05:01:42;17.52;;;10.05;;
20997;SDS011;10657;51.276;6.390;2023-01-19T05:04:08;14.35;;;10.15;;
20997;SDS011;10657;51.276;6.390;2023-01-19T05:06:35;14.38;;;8.63;;
20997;SDS011;10657;51.276;6.390;2023-01-19T05:09:02;13.15;;;9.65;;
20997;SDS011;10657;51.276;6.390;2023-01-19T05:11:30;12.80;;;8.75;;
20997;SDS011;10657;51.276;6.390;2023-01-19T05:13:56;11.25;;;7.93;;
20997;SDS011;10657;51.276;6.390;2023-01-19T05:16:23;11.95;;;8.48;;
20997;SDS011;10657;51.276;6.390;2023-01-19T05:18:50;12.07;;;8.38;;
20997;SDS011;10657;51.276;6.390;2023-01-19T05:21:17;11.10;;;6.93;;
20997;SDS011;10657;51.276;6.390;2023-01-19T05:23:44;10.98;;;7.03;;
20997;SDS011;10657;51.276;6.390;2023-01-19T05:26:10;9.75;;;7.13;;
20997;SDS011;10657;51.276;6.390;2023-01-19T05:28:37;10.20;;;7.18;;
20997;SDS011;10657;51.276;6.390;2023-01-19T05:31:04;10.80;;;7.53;;
20997;SDS011;10657;51.276;6.390;2023-01-19T05:33:31;9.52;;;7.15;;
20997;SDS011;10657;51.276;6.390;2023-01-19T05:35:58;10.55;;;6.97;;
20997;SDS011;10657;51.276;6.390;2023-01-19T05:38:24;8.70;;;5.80;;
20997;SDS011;10657;51.276;6.390;2023-01-19T05:41:00;8.35;;;5.90;;
20997;SDS011;10657;51.276;6.390;2023-01-19T05:43:27;7.22;;;5.00;;
20997;SDS011;10657;51.276;6.390;2023-01-19T05:45:54;8.25;;;4.95;;
20997;SDS011;10657;51.276;6.390;2023-01-19T05:48:20;7.10;;;4.60;;
20997;SDS011;10657;51.276;6.390;2023-01-19T05:50:47;7.15;;;3.95;;
20997;SDS011;10657;51.276;6.390;2023-01-19T05:53:14;7.32;;;4.45;;
20997;SDS011;10657;51.276;6.390;2023-01-19T05:55:42;7.65;;;4.40;;
20997;SDS011;10657;51.276;6.390;2023-01-19T05:58:08;6.75;;;4.05;;
20997;SDS011;10657;51.276;6.390;2023-01-19T06:00:35;7.00;;;3.70;;
20997;SDS011;10657;51.276;6.390;2023-01-19T06:03:02;6.40;;;3.80;;
20997;SDS011;10657;51.276;6.390;2023-01-19T06:05:29;7.63;;;4.13;;
20997;SDS011;10657;51.276;6.390;2023-01-19T06:07:56;6.68;;;3.50;;
20997;SDS011;10657;51.276;6.390;2023-01-19T06:10:23;7.55;;;4.10;;
20997;SDS011;10657;51.276;6.390;2023-01-19T06:12:49;7.13;;;3.80;;
20997;SDS011;10657;51.276;6.390;2023-01-19T06:15:17;7.90;;;4.22;;
20997;SDS011;10657;51.276;6.390;2023-01-19T06:17:44;7.50;;;4.57;;
20997;SDS011;10657;51.276;6.390;2023-01-19T06:20:11;8.07;;;4.93;;
20997;SDS011;10657;51.276;6.390;2023-01-19T06:22:39;9.85;;;6.93;;
20997;SDS011;10657;51.276;6.390;2023-01-19T06:25:05;10.50;;;7.20;;
20997;SDS011;10657;51.276;6.390;2023-01-19T06:27:32;12.48;;;10.05;;
20997;SDS011;10657;51.276;6.390;2023-01-19T06:29:59;13.68;;;10.68;;
20997;SDS011;10657;51.276;6.390;2023-01-19T06:32:26;13.07;;;10.05;;
20997;SDS011;10657;51.276;6.390;2023-01-19T06:34:52;12.02;;;8.50;;
20997;SDS011;10657;51.276;6.390;2023-01-19T06:37:19;10.60;;;7.60;;
20997;SDS011;10657;51.276;6.390;2023-01-19T06:39:46;10.68;;;7.10;;
20997;SDS011;10657;51.276;6.390;2023-01-19T06:42:12;10.77;;;7.28;;
20997;SDS011;10657;51.276;6.390;2023-01-19T06:44:39;9.70;;;7.18;;
20997;SDS011;10657;51.276;6.390;2023-01-19T06:47:12;10.40;;;6.93;;
20997;SDS011;10657;51.276;6.390;2023-01-19T06:49:41;10.52;;;6.53;;
20997;SDS011;10657;51.276;6.390;2023-01-19T06:52:09;10.57;;;7.57;;
20997;SDS011;10657;51.276;6.390;2023-01-19T06:54:36;10.25;;;6.35;;
20997;SDS011;10657;51.276;6.390;2023-01-19T06:57:03;10.15;;;6.90;;
20997;SDS011;10657;51.276;6.390;2023-01-19T06:59:30;10.00;;;5.57;;
20997;SDS011;10657;51.276;6.390;2023-01-19T07:01:57;10.35;;;6.80;;
20997;SDS011;10657;51.276;6.390;2023-01-19T07:04:24;9.73;;;6.78;;
20997;SDS011;10657;51.276;6.390;2023-01-19T07:06:52;9.90;;;5.97;;
20997;SDS011;10657;51.276;6.390;2023-01-19T07:09:18;12.55;;;7.57;;
20997;SDS011;10657;51.276;6.390;2023-01-19T07:11:45;11.20;;;7.30;;
20997;SDS011;10657;51.276;6.390;2023-01-19T07:14:13;10.70;;;6.97;;
20997;SDS011;10657;51.276;6.390;2023-01-19T07:16:40;10.63;;;6.03;;
20997;SDS011;10657;51.276;6.390;2023-01-19T07:19:08;12.68;;;8.68;;
20997;SDS011;10657;51.276;6.390;2023-01-19T07:21:35;15.57;;;9.63;;
20997;SDS011;10657;51.276;6.390;2023-01-19T07:24:02;14.50;;;8.88;;
20997;SDS011;10657;51.276;6.390;2023-01-19T07:26:29;14.05;;;8.30;;
20997;SDS011;10657;51.276;6.390;2023-01-19T07:28:55;14.48;;;10.32;;
20997;SDS011;10657;51.276;6.390;2023-01-19T07:31:22;14.10;;;9.48;;
20997;SDS011;10657;51.276;6.390;2023-01-19T07:33:49;13.77;;;8.88;;
20997;SDS011;10657;51.276;6.390;2023-01-19T07:36:16;14.23;;;8.07;;
20997;SDS011;10657;51.276;6.390;2023-01-19T07:38:43;11.82;;;7.68;;
20997;SDS011;10657;51.276;6.390;2023-01-19T07:41:09;11.35;;;7.07;;
20997;SDS011;10657;51.276;6.390;2023-01-19T07:43:36;12.57;;;8.10;;
20997;SDS011;10657;51.276;6.390;2023-01-19T07:46:04;11.30;;;6.70;;
20997;SDS011;10657;51.276;6.390;2023-01-19T07:48:31;12.00;;;7.72;;
20997;SDS011;10657;51.276;6.390;2023-01-19T07:50:59;10.70;;;8.20;;
20997;SDS011;10657;51.276;6.390;2023-01-19T07:53:26;12.10;;;7.68;;
20997;SDS011;10657;51.276;6.390;2023-01-19T07:55:56;11.25;;;8.20;;
20997;SDS011;10657;51.276;6.390;2023-01-19T07:58:23;13.15;;;8.32;;
20997;SDS011;10657;51.276;6.390;2023-01-19T08:00:50;11.50;;;7.80;;
20997;SDS011;10657;51.276;6.390;2023-01-19T08:03:17;12.60;;;9.05;;
20997;SDS011;10657;51.276;6.390;2023-01-19T08:05:44;12.90;;;8.30;;
20997;SDS011;10657;51.276;6.390;2023-01-19T08:08:16;16.33;;;9.55;;
20997;SDS011;10657;51.276;6.390;2023-01-19T08:10:43;14.05;;;9.45;;
20997;SDS011;10657;51.276;6.390;2023-01-19T08:13:11;12.45;;;8.90;;
20997;SDS011;10657;51.276;6.390;2023-01-19T08:15:37;17.52;;;8.90;;
20997;SDS011;10657;51.276;6.390;2023-01-19T08:18:04;13.07;;;7.82;;
20997;SDS011;10657;51.276;6.390;2023-01-19T08:20:31;12.80;;;7.90;;
20997;SDS011;10657;51.276;6.390;2023-01-19T08:22:58;12.88;;;8.40;;
20997;SDS011;10657;51.276;6.390;2023-01-19T08:28:22;14.18;;;8.25;;
20997;SDS011;10657;51.276;6.390;2023-01-19T08:30:49;15.77;;;10.60;;
20997;SDS011;10657;51.276;6.390;2023-01-19T08:33:23;15.30;;;8.98;;
20997;SDS011;10657;51.276;6.390;2023-01-19T08:35:51;16.65;;;11.05;;
20997;SDS011;10657;51.276;6.390;2023-01-19T08:38:18;15.90;;;9.85;;
20997;SDS011;10657;51.276;6.390;2023-01-19T08:40:45;15.50;;;10.60;;
20997;SDS011;10657;51.276;6.390;2023-01-19T08:43:12;17.08;;;11.13;;
20997;SDS011;10657;51.276;6.390;2023-01-19T08:45:42;17.13;;;10.63;;
20997;SDS011;10657;51.276;6.390;2023-01-19T08:48:14;18.85;;;11.68;;
20997;SDS011;10657;51.276;6.390;2023-01-19T08:50:44;20.77;;;12.35;;
20997;SDS011;10657;51.276;6.390;2023-01-19T08:53:12;20.90;;;13.32;;
20997;SDS011;10657;51.276;6.390;2023-01-19T08:55:39;17.20;;;12.65;;
20997;SDS011;10657;51.276;6.390;2023-01-19T08:58:06;16.95;;;11.98;;
20997;SDS011;10657;51.276;6.390;2023-01-19T09:00:37;18.75;;;13.10;;
20997;SDS011;10657;51.276;6.390;2023-01-19T09:03:05;18.92;;;12.13;;
20997;SDS011;10657;51.276;6.390;2023-01-19T09:05:34;18.63;;;11.95;;
20997;SDS011;10657;51.276;6.390;2023-01-19T09:08:05;20.55;;;11.65;;
20997;SDS011;10657;51.276;6.390;2023-01-19T09:10:34;17.10;;;12.32;;
20997;SDS011;10657;51.276;6.390;2023-01-19T09:13:03;21.55;;;11.45;;
20997;SDS011;10657;51.276;6.390;2023-01-19T09:15:30;16.98;;;12.48;;
20997;SDS011;10657;51.276;6.390;2023-01-19T09:18:01;19.20;;;12.13;;
20997;SDS011;10657;51.276;6.390;2023-01-19T09:20:28;20.75;;;14.35;;
20997;SDS011;10657;51.276;6.390;2023-01-19T09:22:56;19.58;;;12.60;;
20997;SDS011;10657;51.276;6.390;2023-01-19T09:25:23;22.23;;;15.45;;
20997;SDS011;10657;51.276;6.390;2023-01-19T09:27:50;20.40;;;14.30;;
20997;SDS011;10657;51.276;6.390;2023-01-19T09:30:18;21.42;;;14.93;;
20997;SDS011;10657;51.276;6.390;2023-01-19T09:32:44;24.73;;;16.55;;
20997;SDS011;10657;51.276;6.390;2023-01-19T09:35:11;23.33;;;16.42;;
20997;SDS011;10657;51.276;6.390;2023-01-19T09:37:38;30.85;;;16.83;;
20997;SDS011;10657;51.276;6.390;2023-01-19T09:40:05;27.70;;;17.10;;
20997;SDS011;10657;51.276;6.390;2023-01-19T09:42:42;27.35;;;17.63;;
20997;SDS011;10657;51.276;6.390;2023-01-19T09:45:14;26.65;;;18.20;;
20997;SDS011;10657;51.276;6.390;2023-01-19T09:47:51;29.13;;;18.02;;
20997;SDS011;10657;51.276;6.390;2023-01-19T09:50:26;27.85;;;18.83;;
20997;SDS011;10657;51.276;6.390;2023-01-19T09:53:05;28.75;;;21.15;;
20997;SDS011;10657;51.276;6.390;2023-01-19T09:55:40;27.52;;;19.10;;
20997;SDS011;10657;51.276;6.390;2023-01-19T09:58:09;28.55;;;18.30;;
20997;SDS011;10657;51.276;6.390;2023-01-19T10:00:38;29.10;;;19.75;;
20997;SDS011;10657;51.276;6.390;2023-01-19T10:03:14;31.05;;;17.90;;
20997;SDS011;10657;51.276;6.390;2023-01-19T10:05:52;31.50;;;20.45;;
20997;SDS011;10657;51.276;6.390;2023-01-19T10:11:01;31.27;;;18.00;;
20997;SDS011;10657;51.276;6.390;2023-01-19T10:13:42;28.42;;;18.45;;
20997;SDS011;10657;51.276;6.390;2023-01-19T10:16:34;31.55;;;20.15;;
20997;SDS011;10657;51.276;6.390;2023-01-19T10:21:44;33.33;;;17.58;;
20997;SDS011;10657;51.276;6.390;2023-01-19T10:27:04;26.35;;;16.00;;
20997;SDS011;10657;51.276;6.390;2023-01-19T10:29:40;28.65;;;16.25;;
20997;SDS011;10657;51.276;6.390;2023-01-19T10:32:10;24.05;;;14.90;;
20997;SDS011;10657;51.276;6.390;2023-01-19T10:34:42;26.55;;;14.68;;
20997;SDS011;10657;51.276;6.390;2023-01-19T10:40:47;25.00;;;14.43;;
20997;SDS011;10657;51.276;6.390;2023-01-19T10:42:55;27.00;;;14.95;;
20997;SDS011;10657;51.276;6.390;2023-01-19T10:45:25;30.38;;;15.50;;
20997;SDS011;10657;51.276;6.390;2023-01-19T10:47:56;26.25;;;15.13;;
20997;SDS011;10657;51.276;6.390;2023-01-19T10:50:32;26.98;;;16.08;;
20997;SDS011;10657;51.276;6.390;2023-01-19T10:53:02;24.08;;;14.93;;
20997;SDS011;10657;51.276;6.390;2023-01-19T10:55:34;27.23;;;16.27;;
20997;SDS011;10657;51.276;6.390;2023-01-19T10:58:05;30.20;;;18.50;;
20997;SDS011;10657;51.276;6.390;2023-01-19T11:00:52;31.50;;;16.58;;
20997;SDS011;10657;51.276;6.390;2023-01-19T11:03:29;28.17;;;17.40;;
20997;SDS011;10657;51.276;6.390;2023-01-19T11:05:59;34.25;;;18.52;;
20997;SDS011;10657;51.276;6.390;2023-01-19T11:08:48;31.40;;;20.05;;
20997;SDS011;10657;51.276;6.390;2023-01-19T11:11:17;31.45;;;16.00;;
20997;SDS011;10657;51.276;6.390;2023-01-19T11:14:00;27.55;;;17.25;;
20997;SDS011;10657;51.276;6.390;2023-01-19T11:16:30;26.58;;;17.10;;
20997;SDS011;10657;51.276;6.390;2023-01-19T11:18:59;30.55;;;18.05;;
20997;SDS011;10657;51.276;6.390;2023-01-19T11:21:28;26.63;;;16.05;;
20997;SDS011;10657;51.276;6.390;2023-01-19T11:24:01;25.60;;;16.05;;
20997;SDS011;10657;51.276;6.390;2023-01-19T11:29:14;29.83;;;16.00;;
20997;SDS011;10657;51.276;6.390;2023-01-19T11:31:52;24.90;;;14.63;;
20997;SDS011;10657;51.276;6.390;2023-01-19T11:34:38;26.27;;;14.48;;
20997;SDS011;10657;51.276;6.390;2023-01-19T11:37:22;27.42;;;14.98;;
20997;SDS011;10657;51.276;6.390;2023-01-19T11:39:53;27.85;;;14.75;;
20997;SDS011;10657;51.276;6.390;2023-01-19T11:42:25;27.45;;;14.38;;
20997;SDS011;10657;51.276;6.390;2023-01-19T11:45:00;32.22;;;16.10;;
20997;SDS011;10657;51.276;6.390;2023-01-19T11:47:38;22.15;;;13.20;;
20997;SDS011;10657;51.276;6.390;2023-01-19T11:53:15;20.98;;;12.45;;
20997;SDS011;10657;51.276;6.390;2023-01-19T11:55:52;26.75;;;15.45;;
20997;SDS011;10657;51.276;6.390;2023-01-19T11:58:23;25.70;;;15.40;;
20997;SDS011;10657;51.276;6.390;2023-01-19T12:00:55;20.60;;;12.25;;
20997;SDS011;10657;51.276;6.390;2023-01-19T12:06:56;23.05;;;12.93;;
20997;SDS011;10657;51.276;6.390;2023-01-19T12:09:47;22.73;;;14.00;;
20997;SDS011;10657;51.276;6.390;2023-01-19T12:12:23;25.65;;;18.17;;
20997;SDS011;10657;51.276;6.390;2023-01-19T12:14:56;26.63;;;18.60;;
20997;SDS011;10657;51.276;6.390;2023-01-19T12:17:34;26.90;;;18.52;;
20997;SDS011;10657;51.276;6.390;2023-01-19T12:22:59;23.52;;;13.93;;
20997;SDS011;10657;51.276;6.390;2023-01-19T12:25:40;23.02;;;13.65;;
20997;SDS011;10657;51.276;6.390;2023-01-19T12:28:14;26.88;;;13.43;;
20997;SDS011;10657;51.276;6.390;2023-01-19T12:30:47;24.67;;;12.27;;
20997;SDS011;10657;51.276;6.390;2023-01-19T12:33:31;24.92;;;13.35;;
20997;SDS011;10657;51.276;6.390;2023-01-19T12:36:00;24.02;;;15.98;;
20997;SDS011;10657;51.276;6.390;2023-01-19T12:39:09;25.60;;;15.93;;
20997;SDS011;10657;51.276;6.390;2023-01-19T12:41:40;28.58;;;18.40;;
20997;SDS011;10657;51.276;6.390;2023-01-19T12:46:45;24.30;;;14.00;;
20997;SDS011;10657;51.276;6.390;2023-01-19T12:51:44;24.77;;;13.57;;
20997;SDS011;10657;51.276;6.390;2023-01-19T12:54:48;22.92;;;13.23;;
20997;SDS011;10657;51.276;6.390;2023-01-19T12:57:58;24.73;;;15.88;;
20997;SDS011;10657;51.276;6.390;2023-01-19T13:02:56;21.92;;;13.32;;
20997;SDS011;10657;51.276;6.390;2023-01-19T13:15:59;17.45;;;9.82;;
20997;SDS011;10657;51.276;6.390;2023-01-19T13:24:10;15.98;;;9.60;;
20997;SDS011;10657;51.276;6.390;2023-01-19T13:29:31;24.20;;;12.23;;
20997;SDS011;10657;51.276;6.390;2023-01-19T13:32:01;16.65;;;9.38;;
20997;SDS011;10657;51.276;6.390;2023-01-19T13:34:44;23.67;;;13.05;;
20997;SDS011;10657;51.276;6.390;2023-01-19T13:37:17;18.55;;;10.02;;
20997;SDS011;10657;51.276;6.390;2023-01-19T13:39:47;20.33;;;11.63;;
20997;SDS011;10657;51.276;6.390;2023-01-19T13:42:20;22.10;;;11.98;;
20997;SDS011;10657;51.276;6.390;2023-01-19T13:45:01;20.67;;;12.07;;
20997;SDS011;10657;51.276;6.390;2023-01-19T13:47:40;19.98;;;11.23;;
20997;SDS011;10657;51.276;6.390;2023-01-19T13:50:18;21.88;;;12.35;;
20997;SDS011;10657;51.276;6.390;2023-01-19T13:52:47;20.83;;;11.55;;
20997;SDS011;10657;51.276;6.390;2023-01-19T13:55:19;21.60;;;11.68;;
20997;SDS011;10657;51.276;6.390;2023-01-19T13:57:47;19.92;;;12.93;;
20997;SDS011;10657;51.276;6.390;2023-01-19T14:00:19;21.52;;;10.75;;
20997;SDS011;10657;51.276;6.390;2023-01-19T14:03:25;20.63;;;11.73;;
20997;SDS011;10657;51.276;6.390;2023-01-19T14:05:49;19.17;;;9.48;;
20997;SDS011;10657;51.276;6.390;2023-01-19T14:08:20;15.52;;;10.02;;
20997;SDS011;10657;51.276;6.390;2023-01-19T14:13:22;19.38;;;11.93;;
20997;SDS011;10657;51.276;6.390;2023-01-19T14:15:51;20.27;;;11.45;;
20997;SDS011;10657;51.276;6.390;2023-01-19T14:29:15;23.98;;;13.02;;
20997;SDS011;10657;51.276;6.390;2023-01-19T14:42:24;18.77;;;11.00;;
20997;SDS011;10657;51.276;6.390;2023-01-19T14:44:54;17.92;;;10.52;;
20997;SDS011;10657;51.276;6.390;2023-01-19T14:47:26;14.73;;;7.82;;
20997;SDS011;10657;51.276;6.390;2023-01-19T14:50:06;23.17;;;12.20;;
20997;SDS011;10657;51.276;6.390;2023-01-19T14:52:47;23.08;;;9.13;;
20997;SDS011;10657;51.276;6.390;2023-01-19T14:55:34;17.38;;;8.95;;
20997;SDS011;10657;51.276;6.390;2023-01-19T14:58:11;17.77;;;9.52;;
20997;SDS011;10657;51.276;6.390;2023-01-19T15:00:39;18.67;;;9.70;;
20997;SDS011;10657;51.276;6.390;2023-01-19T15:03:07;16.25;;;8.88;;
20997;SDS011;10657;51.276;6.390;2023-01-19T15:05:38;14.38;;;7.95;;
20997;SDS011;10657;51.276;6.390;2023-01-19T15:08:06;20.38;;;10.05;;
20997;SDS011;10657;51.276;6.390;2023-01-19T15:10:36;21.02;;;10.63;;
20997;SDS011;10657;51.276;6.390;2023-01-19T15:13:02;16.23;;;7.60;;
20997;SDS011;10657;51.276;6.390;2023-01-19T15:15:30;16.08;;;8.65;;
20997;SDS011;10657;51.276;6.390;2023-01-19T15:18:01;15.65;;;8.02;;
20997;SDS011;10657;51.276;6.390;2023-01-19T15:20:29;12.02;;;5.60;;
20997;SDS011;10657;51.276;6.390;2023-01-19T15:22:56;15.88;;;8.27;;
20997;SDS011;10657;51.276;6.390;2023-01-19T15:25:23;15.52;;;8.68;;
20997;SDS011;10657;51.276;6.390;2023-01-19T15:27:52;16.85;;;8.15;;
20997;SDS011;10657;51.276;6.390;2023-01-19T15:30:24;19.77;;;9.25;;
20997;SDS011;10657;51.276;6.390;2023-01-19T15:32:58;18.35;;;9.90;;
20997;SDS011;10657;51.276;6.390;2023-01-19T15:35:25;13.20;;;6.95;;
20997;SDS011;10657;51.276;6.390;2023-01-19T15:37:51;15.88;;;8.65;;
20997;SDS011;10657;51.276;6.390;2023-01-19T15:40:18;15.85;;;8.70;;
20997;SDS011;10657;51.276;6.390;2023-01-19T15:42:47;13.55;;;7.35;;
20997;SDS011;10657;51.276;6.390;2023-01-19T15:47:50;15.07;;;8.43;;
20997;SDS011;10657;51.276;6.390;2023-01-19T15:50:17;18.23;;;10.60;;
20997;SDS011;10657;51.276;6.390;2023-01-19T15:52:45;22.98;;;11.30;;
20997;SDS011;10657;51.276;6.390;2023-01-19T15:55:11;20.55;;;10.75;;
20997;SDS011;10657;51.276;6.390;2023-01-19T15:57:40;21.70;;;11.57;;
20997;SDS011;10657;51.276;6.390;2023-01-19T16:00:07;20.98;;;10.77;;
20997;SDS011;10657;51.276;6.390;2023-01-19T16:02:35;19.77;;;11.40;;
20997;SDS011;10657;51.276;6.390;2023-01-19T16:05:02;23.20;;;12.02;;
20997;SDS011;10657;51.276;6.390;2023-01-19T16:07:29;19.63;;;11.13;;
20997;SDS011;10657;51.276;6.390;2023-01-19T16:09:57;19.67;;;11.18;;
20997;SDS011;10657;51.276;6.390;2023-01-19T16:12:24;24.15;;;12.10;;
20997;SDS011;10657;51.276;6.390;2023-01-19T16:14:51;21.95;;;9.48;;
20997;SDS011;10657;51.276;6.390;2023-01-19T16:17:17;20.38;;;10.38;;
20997;SDS011;10657;51.276;6.390;2023-01-19T16:19:45;20.35;;;10.15;;
20997;SDS011;10657;51.276;6.390;2023-01-19T16:22:12;24.02;;;11.48;;
20997;SDS011;10657;51.276;6.390;2023-01-19T16:24:39;17.13;;;7.03;;